sensor_id;sensor_type;location;lat;lon;timestamp;P1;durP1;ratioP1;P2;durP2;ratioP2
7047;SDS011;3565;53.254;10.352;2023-04-12T00:01:17;10.50;;;5.90;;
7047;SDS011;3565;53.254;10.352;2023-04-12T00:06:24;10.37;;;6.17;;
7047;SDS011;3565;53.254;10.352;2023-04-12T00:08:55;9.57;;;5.90;;
7047;SDS011;3565;53.254;10.352;2023-04-12T00:11:34;9.60;;;5.83;;
7047;SDS011;3565;53.254;10.352;2023-04-12T00:14:03;8.90;;;5.83;;
7047;SDS011;3565;53.254;10.352;2023-04-12T00:16:32;13.20;;;6.30;;
7047;SDS011;3565;53.254;10.352;2023-04-12T00:21:40;12.30;;;6.30;;
7047;SDS011;3565;53.254;10.352;2023-04-12T00:26:48;13.97;;;7.07;;
7047;SDS011;3565;53.254;10.352;2023-04-12T00:29:18;11.07;;;6.27;;
7047;SDS011;3565;53.254;10.352;2023-04-12T00:31:47;14.33;;;6.70;;
7047;SDS011;3565;53.254;10.352;2023-04-12T00:36:53;10.77;;;6.20;;
7047;SDS011;3565;53.254;10.352;2023-04-12T00:42:02;9.47;;;6.10;;
7047;SDS011;3565;53.254;10.352;2023-04-12T00:44:32;10.73;;;6.20;;
7047;SDS011;3565;53.254;10.352;2023-04-12T00:49:39;11.37;;;6.47;;
7047;SDS011;3565;53.254;10.352;2023-04-12T00:52:09;10.83;;;6.17;;
7047;SDS011;3565;53.254;10.352;2023-04-12T00:54:49;9.93;;;6.43;;
7047;SDS011;3565;53.254;10.352;2023-04-12T00:57:21;11.37;;;6.97;;
7047;SDS011;3565;53.254;10.352;2023-04-12T00:59:50;9.33;;;6.43;;
7047;SDS011;3565;53.254;10.352;2023-04-12T01:04:56;6.67;;;5.83;;
7047;SDS011;3565;53.254;10.352;2023-04-12T01:07:28;11.67;;;6.50;;
7047;SDS011;3565;53.254;10.352;2023-04-12T01:10:05;9.63;;;6.67;;
7047;SDS011;3565;53.254;10.352;2023-04-12T01:12:43;11.73;;;6.77;;
7047;SDS011;3565;53.254;10.352;2023-04-12T01:15:18;12.37;;;7.47;;
7047;SDS011;3565;53.254;10.352;2023-04-12T01:17:51;11.33;;;7.00;;
7047;SDS011;3565;53.254;10.352;2023-04-12T01:20:23;12.90;;;7.50;;
7047;SDS011;3565;53.254;10.352;2023-04-12T01:26:04;14.03;;;7.77;;
7047;SDS011;3565;53.254;10.352;2023-04-12T01:28:40;13.23;;;8.20;;
7047;SDS011;3565;53.254;10.352;2023-04-12T01:31:19;13.73;;;8.03;;
7047;SDS011;3565;53.254;10.352;2023-04-12T01:33:50;15.90;;;8.00;;
7047;SDS011;3565;53.254;10.352;2023-04-12T01:36:21;11.47;;;8.57;;
7047;SDS011;3565;53.254;10.352;2023-04-12T01:38:52;15.50;;;8.03;;
7047;SDS011;3565;53.254;10.352;2023-04-12T01:41:22;16.63;;;8.30;;
7047;SDS011;3565;53.254;10.352;2023-04-12T01:43:51;16.30;;;8.80;;
7047;SDS011;3565;53.254;10.352;2023-04-12T01:46:21;13.23;;;7.43;;
7047;SDS011;3565;53.254;10.352;2023-04-12T01:48:51;12.27;;;7.80;;
7047;SDS011;3565;53.254;10.352;2023-04-12T01:51:25;14.67;;;7.93;;
7047;SDS011;3565;53.254;10.352;2023-04-12T01:53:58;14.40;;;7.93;;
7047;SDS011;3565;53.254;10.352;2023-04-12T01:56:29;15.03;;;7.83;;
7047;SDS011;3565;53.254;10.352;2023-04-12T01:59:01;15.50;;;7.77;;
7047;SDS011;3565;53.254;10.352;2023-04-12T02:01:32;12.27;;;6.90;;
7047;SDS011;3565;53.254;10.352;2023-04-12T02:04:01;12.27;;;7.23;;
7047;SDS011;3565;53.254;10.352;2023-04-12T02:09:12;9.97;;;6.30;;
7047;SDS011;3565;53.254;10.352;2023-04-12T02:11:45;10.70;;;6.47;;
7047;SDS011;3565;53.254;10.352;2023-04-12T02:14:15;11.23;;;6.77;;
7047;SDS011;3565;53.254;10.352;2023-04-12T02:16:44;8.77;;;6.80;;
7047;SDS011;3565;53.254;10.352;2023-04-12T02:19:13;11.20;;;5.97;;
7047;SDS011;3565;53.254;10.352;2023-04-12T02:21:43;10.83;;;6.50;;
7047;SDS011;3565;53.254;10.352;2023-04-12T02:24:12;12.20;;;6.27;;
7047;SDS011;3565;53.254;10.352;2023-04-12T02:26:41;8.87;;;6.27;;
7047;SDS011;3565;53.254;10.352;2023-04-12T02:29:11;8.67;;;6.13;;
7047;SDS011;3565;53.254;10.352;2023-04-12T02:31:43;10.27;;;6.20;;
7047;SDS011;3565;53.254;10.352;2023-04-12T02:34:22;9.50;;;6.10;;
7047;SDS011;3565;53.254;10.352;2023-04-12T02:36:52;11.30;;;6.50;;
7047;SDS011;3565;53.254;10.352;2023-04-12T02:39:21;10.40;;;6.40;;
7047;SDS011;3565;53.254;10.352;2023-04-12T02:41:51;9.63;;;6.50;;
7047;SDS011;3565;53.254;10.352;2023-04-12T02:44:21;9.93;;;6.50;;
7047;SDS011;3565;53.254;10.352;2023-04-12T02:46:51;10.87;;;5.97;;
7047;SDS011;3565;53.254;10.352;2023-04-12T02:49:20;8.93;;;6.10;;
7047;SDS011;3565;53.254;10.352;2023-04-12T02:51:50;12.40;;;6.87;;
7047;SDS011;3565;53.254;10.352;2023-04-12T02:54:19;9.03;;;6.10;;
7047;SDS011;3565;53.254;10.352;2023-04-12T02:56:49;9.57;;;6.63;;
7047;SDS011;3565;53.254;10.352;2023-04-12T02:59:18;9.47;;;5.80;;
7047;SDS011;3565;53.254;10.352;2023-04-12T03:01:48;11.20;;;6.20;;
7047;SDS011;3565;53.254;10.352;2023-04-12T03:04:17;8.27;;;6.03;;
7047;SDS011;3565;53.254;10.352;2023-04-12T03:06:47;7.93;;;5.90;;
7047;SDS011;3565;53.254;10.352;2023-04-12T03:09:19;12.67;;;6.17;;
7047;SDS011;3565;53.254;10.352;2023-04-12T03:11:57;7.43;;;5.67;;
7047;SDS011;3565;53.254;10.352;2023-04-12T03:14:27;10.90;;;5.63;;
7047;SDS011;3565;53.254;10.352;2023-04-12T03:19:34;12.60;;;5.90;;
7047;SDS011;3565;53.254;10.352;2023-04-12T03:22:04;9.07;;;5.67;;
7047;SDS011;3565;53.254;10.352;2023-04-12T03:24:33;10.43;;;5.20;;
7047;SDS011;3565;53.254;10.352;2023-04-12T03:27:11;11.03;;;5.23;;
7047;SDS011;3565;53.254;10.352;2023-04-12T03:29:41;9.53;;;4.83;;
7047;SDS011;3565;53.254;10.352;2023-04-12T03:32:11;9.70;;;5.37;;
7047;SDS011;3565;53.254;10.352;2023-04-12T03:34:40;9.33;;;5.07;;
7047;SDS011;3565;53.254;10.352;2023-04-12T03:37:11;7.80;;;5.33;;
7047;SDS011;3565;53.254;10.352;2023-04-12T03:39:41;6.33;;;5.17;;
7047;SDS011;3565;53.254;10.352;2023-04-12T03:44:50;8.47;;;5.43;;
7047;SDS011;3565;53.254;10.352;2023-04-12T03:47:19;8.43;;;4.93;;
7047;SDS011;3565;53.254;10.352;2023-04-12T03:49:48;10.60;;;5.23;;
7047;SDS011;3565;53.254;10.352;2023-04-12T03:52:21;8.23;;;4.90;;
7047;SDS011;3565;53.254;10.352;2023-04-12T03:54:50;7.67;;;4.77;;
7047;SDS011;3565;53.254;10.352;2023-04-12T03:57:19;8.97;;;5.57;;
7047;SDS011;3565;53.254;10.352;2023-04-12T03:59:58;9.43;;;4.73;;
7047;SDS011;3565;53.254;10.352;2023-04-12T04:02:29;6.43;;;4.37;;
7047;SDS011;3565;53.254;10.352;2023-04-12T04:04:58;7.80;;;4.70;;
7047;SDS011;3565;53.254;10.352;2023-04-12T04:07:29;8.33;;;4.57;;
7047;SDS011;3565;53.254;10.352;2023-04-12T04:09:58;6.03;;;4.50;;
7047;SDS011;3565;53.254;10.352;2023-04-12T04:12:28;8.10;;;4.67;;
7047;SDS011;3565;53.254;10.352;2023-04-12T04:14:57;6.50;;;4.30;;
7047;SDS011;3565;53.254;10.352;2023-04-12T04:17:26;9.63;;;4.60;;
7047;SDS011;3565;53.254;10.352;2023-04-12T04:19:55;9.53;;;4.50;;
7047;SDS011;3565;53.254;10.352;2023-04-12T04:22:25;8.43;;;4.47;;
7047;SDS011;3565;53.254;10.352;2023-04-12T04:24:54;6.93;;;4.47;;
7047;SDS011;3565;53.254;10.352;2023-04-12T04:27:23;7.57;;;4.20;;
7047;SDS011;3565;53.254;10.352;2023-04-12T04:29:55;7.40;;;4.57;;
7047;SDS011;3565;53.254;10.352;2023-04-12T04:32:26;8.23;;;4.97;;
7047;SDS011;3565;53.254;10.352;2023-04-12T04:34:55;7.00;;;4.40;;
7047;SDS011;3565;53.254;10.352;2023-04-12T04:37:25;9.17;;;4.20;;
7047;SDS011;3565;53.254;10.352;2023-04-12T04:39:55;8.47;;;3.87;;
7047;SDS011;3565;53.254;10.352;2023-04-12T04:42:25;5.63;;;3.93;;
7047;SDS011;3565;53.254;10.352;2023-04-12T04:44:57;10.00;;;6.00;;
7047;SDS011;3565;53.254;10.352;2023-04-12T04:47:28;16.27;;;8.33;;
7047;SDS011;3565;53.254;10.352;2023-04-12T04:49:58;8.07;;;5.30;;
7047;SDS011;3565;53.254;10.352;2023-04-12T04:52:28;12.57;;;7.30;;
7047;SDS011;3565;53.254;10.352;2023-04-12T04:54:57;5.90;;;4.80;;
7047;SDS011;3565;53.254;10.352;2023-04-12T04:57:36;8.80;;;4.67;;
7047;SDS011;3565;53.254;10.352;2023-04-12T05:00:08;8.47;;;4.40;;
7047;SDS011;3565;53.254;10.352;2023-04-12T05:02:41;6.57;;;4.10;;
7047;SDS011;3565;53.254;10.352;2023-04-12T05:05:19;14.73;;;6.70;;
7047;SDS011;3565;53.254;10.352;2023-04-12T05:10:29;5.83;;;5.00;;
7047;SDS011;3565;53.254;10.352;2023-04-12T05:12:59;8.93;;;4.70;;
7047;SDS011;3565;53.254;10.352;2023-04-12T05:18:12;8.70;;;4.67;;
7047;SDS011;3565;53.254;10.352;2023-04-12T05:20:41;4.90;;;3.77;;
7047;SDS011;3565;53.254;10.352;2023-04-12T05:23:20;7.40;;;4.30;;
7047;SDS011;3565;53.254;10.352;2023-04-12T05:25:49;6.73;;;4.07;;
7047;SDS011;3565;53.254;10.352;2023-04-12T05:28:18;7.10;;;3.97;;
7047;SDS011;3565;53.254;10.352;2023-04-12T05:33:25;7.83;;;4.17;;
7047;SDS011;3565;53.254;10.352;2023-04-12T05:38:34;5.80;;;3.60;;
7047;SDS011;3565;53.254;10.352;2023-04-12T05:41:04;7.47;;;4.00;;
7047;SDS011;3565;53.254;10.352;2023-04-12T05:43:34;4.80;;;3.63;;
7047;SDS011;3565;53.254;10.352;2023-04-12T05:46:04;7.80;;;3.97;;
7047;SDS011;3565;53.254;10.352;2023-04-12T05:48:33;8.43;;;4.10;;
7047;SDS011;3565;53.254;10.352;2023-04-12T05:51:03;5.40;;;4.10;;
7047;SDS011;3565;53.254;10.352;2023-04-12T05:53:33;7.40;;;4.10;;
7047;SDS011;3565;53.254;10.352;2023-04-12T05:56:02;5.20;;;4.07;;
7047;SDS011;3565;53.254;10.352;2023-04-12T05:58:33;5.03;;;3.90;;
7047;SDS011;3565;53.254;10.352;2023-04-12T06:01:02;6.80;;;4.00;;
7047;SDS011;3565;53.254;10.352;2023-04-12T06:03:32;8.17;;;4.27;;
7047;SDS011;3565;53.254;10.352;2023-04-12T06:06:03;6.07;;;4.07;;
7047;SDS011;3565;53.254;10.352;2023-04-12T06:08:34;6.97;;;4.50;;
7047;SDS011;3565;53.254;10.352;2023-04-12T06:11:04;5.47;;;4.17;;
7047;SDS011;3565;53.254;10.352;2023-04-12T06:13:35;7.10;;;4.57;;
7047;SDS011;3565;53.254;10.352;2023-04-12T06:16:06;8.57;;;6.00;;
7047;SDS011;3565;53.254;10.352;2023-04-12T06:18:35;6.27;;;3.93;;
7047;SDS011;3565;53.254;10.352;2023-04-12T06:23:42;6.30;;;4.30;;
7047;SDS011;3565;53.254;10.352;2023-04-12T06:28:48;6.97;;;4.00;;
7047;SDS011;3565;53.254;10.352;2023-04-12T06:31:18;6.27;;;3.70;;
7047;SDS011;3565;53.254;10.352;2023-04-12T06:33:47;7.60;;;4.00;;
7047;SDS011;3565;53.254;10.352;2023-04-12T06:36:16;7.57;;;4.47;;
7047;SDS011;3565;53.254;10.352;2023-04-12T06:41:23;5.93;;;4.00;;
7047;SDS011;3565;53.254;10.352;2023-04-12T06:43:53;8.23;;;4.03;;
7047;SDS011;3565;53.254;10.352;2023-04-12T06:46:25;7.10;;;3.90;;
7047;SDS011;3565;53.254;10.352;2023-04-12T06:51:31;4.70;;;3.60;;
7047;SDS011;3565;53.254;10.352;2023-04-12T06:56:39;6.87;;;3.57;;
7047;SDS011;3565;53.254;10.352;2023-04-12T06:59:08;8.13;;;3.77;;
7047;SDS011;3565;53.254;10.352;2023-04-12T07:01:47;5.53;;;3.77;;
7047;SDS011;3565;53.254;10.352;2023-04-12T07:04:16;6.00;;;3.17;;
7047;SDS011;3565;53.254;10.352;2023-04-12T07:06:46;5.87;;;3.50;;
7047;SDS011;3565;53.254;10.352;2023-04-12T07:09:25;5.57;;;3.77;;
7047;SDS011;3565;53.254;10.352;2023-04-12T07:11:54;5.27;;;3.43;;
7047;SDS011;3565;53.254;10.352;2023-04-12T07:14:32;5.83;;;3.60;;
7047;SDS011;3565;53.254;10.352;2023-04-12T07:19:39;4.30;;;3.63;;
7047;SDS011;3565;53.254;10.352;2023-04-12T07:22:09;5.97;;;3.53;;
7047;SDS011;3565;53.254;10.352;2023-04-12T07:24:48;5.37;;;3.60;;
7047;SDS011;3565;53.254;10.352;2023-04-12T07:27:17;5.37;;;3.67;;
7047;SDS011;3565;53.254;10.352;2023-04-12T07:32:24;4.67;;;3.80;;
7047;SDS011;3565;53.254;10.352;2023-04-12T07:37:31;4.60;;;3.83;;
7047;SDS011;3565;53.254;10.352;2023-04-12T07:40:02;4.47;;;4.07;;
7047;SDS011;3565;53.254;10.352;2023-04-12T07:42:41;8.30;;;4.00;;
7047;SDS011;3565;53.254;10.352;2023-04-12T07:47:48;6.80;;;3.80;;
7047;SDS011;3565;53.254;10.352;2023-04-12T07:50:18;7.67;;;4.13;;
7047;SDS011;3565;53.254;10.352;2023-04-12T07:52:47;5.13;;;3.70;;
7047;SDS011;3565;53.254;10.352;2023-04-12T07:57:56;6.87;;;3.83;;
7047;SDS011;3565;53.254;10.352;2023-04-12T08:00:26;4.73;;;4.10;;
7047;SDS011;3565;53.254;10.352;2023-04-12T08:02:57;5.60;;;4.20;;
7047;SDS011;3565;53.254;10.352;2023-04-12T08:05:36;7.10;;;3.93;;
7047;SDS011;3565;53.254;10.352;2023-04-12T08:10:43;5.77;;;3.70;;
7047;SDS011;3565;53.254;10.352;2023-04-12T08:13:13;6.57;;;3.63;;
7047;SDS011;3565;53.254;10.352;2023-04-12T08:16:00;5.80;;;3.87;;
7047;SDS011;3565;53.254;10.352;2023-04-12T08:18:29;6.13;;;4.17;;
7047;SDS011;3565;53.254;10.352;2023-04-12T08:20:58;5.67;;;4.13;;
7047;SDS011;3565;53.254;10.352;2023-04-12T08:26:16;5.00;;;4.20;;
7047;SDS011;3565;53.254;10.352;2023-04-12T08:31:35;6.10;;;3.70;;
7047;SDS011;3565;53.254;10.352;2023-04-12T08:36:50;7.50;;;4.10;;
7047;SDS011;3565;53.254;10.352;2023-04-12T08:39:19;4.57;;;3.83;;
7047;SDS011;3565;53.254;10.352;2023-04-12T08:41:48;5.77;;;3.80;;
7047;SDS011;3565;53.254;10.352;2023-04-12T08:44:19;5.50;;;3.97;;
7047;SDS011;3565;53.254;10.352;2023-04-12T08:49:30;7.80;;;4.20;;
7047;SDS011;3565;53.254;10.352;2023-04-12T08:52:01;7.03;;;3.80;;
7047;SDS011;3565;53.254;10.352;2023-04-12T08:54:40;7.57;;;3.60;;
7047;SDS011;3565;53.254;10.352;2023-04-12T08:59:47;5.27;;;4.00;;
7047;SDS011;3565;53.254;10.352;2023-04-12T09:02:18;4.90;;;3.83;;
7047;SDS011;3565;53.254;10.352;2023-04-12T09:07:25;5.10;;;4.10;;
7047;SDS011;3565;53.254;10.352;2023-04-12T09:09:56;5.27;;;3.67;;
7047;SDS011;3565;53.254;10.352;2023-04-12T09:12:25;5.00;;;3.93;;
7047;SDS011;3565;53.254;10.352;2023-04-12T09:15:04;4.70;;;3.97;;
7047;SDS011;3565;53.254;10.352;2023-04-12T09:17:35;7.87;;;3.77;;
7047;SDS011;3565;53.254;10.352;2023-04-12T09:20:20;7.20;;;3.90;;
7047;SDS011;3565;53.254;10.352;2023-04-12T09:22:51;4.77;;;3.70;;
7047;SDS011;3565;53.254;10.352;2023-04-12T09:25:37;5.47;;;3.30;;
7047;SDS011;3565;53.254;10.352;2023-04-12T09:30:56;4.53;;;3.20;;
7047;SDS011;3565;53.254;10.352;2023-04-12T09:33:35;4.97;;;3.20;;
7047;SDS011;3565;53.254;10.352;2023-04-12T09:38:57;5.40;;;2.97;;
7047;SDS011;3565;53.254;10.352;2023-04-12T09:41:27;7.87;;;3.30;;
7047;SDS011;3565;53.254;10.352;2023-04-12T09:44:06;5.40;;;3.37;;
7047;SDS011;3565;53.254;10.352;2023-04-12T09:46:36;6.03;;;3.60;;
7047;SDS011;3565;53.254;10.352;2023-04-12T09:49:21;6.20;;;3.40;;
7047;SDS011;3565;53.254;10.352;2023-04-12T09:52:04;4.47;;;2.97;;
7047;SDS011;3565;53.254;10.352;2023-04-12T09:54:43;4.90;;;3.50;;
7047;SDS011;3565;53.254;10.352;2023-04-12T09:57:22;3.37;;;2.80;;
7047;SDS011;3565;53.254;10.352;2023-04-12T09:59:52;4.47;;;2.90;;
7047;SDS011;3565;53.254;10.352;2023-04-12T10:02:25;5.67;;;3.53;;
7047;SDS011;3565;53.254;10.352;2023-04-12T10:05:05;6.33;;;3.63;;
7047;SDS011;3565;53.254;10.352;2023-04-12T10:10:18;4.37;;;3.00;;
7047;SDS011;3565;53.254;10.352;2023-04-12T10:12:49;5.70;;;2.90;;
7047;SDS011;3565;53.254;10.352;2023-04-12T10:15:31;7.40;;;3.07;;
7047;SDS011;3565;53.254;10.352;2023-04-12T10:20:41;5.90;;;3.00;;
7047;SDS011;3565;53.254;10.352;2023-04-12T10:25:51;5.47;;;3.40;;
7047;SDS011;3565;53.254;10.352;2023-04-12T10:28:22;5.43;;;3.00;;
7047;SDS011;3565;53.254;10.352;2023-04-12T10:30:51;6.93;;;3.37;;
7047;SDS011;3565;53.254;10.352;2023-04-12T10:33:33;6.43;;;3.70;;
7047;SDS011;3565;53.254;10.352;2023-04-12T10:38:45;7.17;;;3.47;;
7047;SDS011;3565;53.254;10.352;2023-04-12T10:41:16;7.13;;;3.27;;
7047;SDS011;3565;53.254;10.352;2023-04-12T10:44:22;6.47;;;3.50;;
7047;SDS011;3565;53.254;10.352;2023-04-12T10:49:27;7.23;;;3.70;;
7047;SDS011;3565;53.254;10.352;2023-04-12T10:54:50;10.23;;;3.70;;
7047;SDS011;3565;53.254;10.352;2023-04-12T11:00:20;4.80;;;3.30;;
7047;SDS011;3565;53.254;10.352;2023-04-12T11:03:07;9.73;;;3.83;;
7047;SDS011;3565;53.254;10.352;2023-04-12T11:05:59;6.87;;;4.03;;
7047;SDS011;3565;53.254;10.352;2023-04-12T11:08:29;4.53;;;3.50;;
7047;SDS011;3565;53.254;10.352;2023-04-12T11:11:17;6.00;;;3.93;;
7047;SDS011;3565;53.254;10.352;2023-04-12T11:16:25;6.07;;;4.13;;
7047;SDS011;3565;53.254;10.352;2023-04-12T11:18:54;6.77;;;4.30;;
7047;SDS011;3565;53.254;10.352;2023-04-12T11:21:23;8.03;;;4.27;;
7047;SDS011;3565;53.254;10.352;2023-04-12T11:26:31;9.53;;;4.23;;
7047;SDS011;3565;53.254;10.352;2023-04-12T11:29:06;6.03;;;4.23;;
7047;SDS011;3565;53.254;10.352;2023-04-12T11:31:44;7.17;;;4.23;;
7047;SDS011;3565;53.254;10.352;2023-04-12T11:36:52;9.03;;;4.20;;
7047;SDS011;3565;53.254;10.352;2023-04-12T11:39:23;9.03;;;3.90;;
7047;SDS011;3565;53.254;10.352;2023-04-12T11:41:54;6.93;;;4.20;;
7047;SDS011;3565;53.254;10.352;2023-04-12T11:44:33;8.20;;;4.27;;
7047;SDS011;3565;53.254;10.352;2023-04-12T11:49:46;5.73;;;3.47;;
7047;SDS011;3565;53.254;10.352;2023-04-12T11:52:16;5.93;;;3.60;;
7047;SDS011;3565;53.254;10.352;2023-04-12T11:54:59;5.17;;;3.50;;
7047;SDS011;3565;53.254;10.352;2023-04-12T11:57:32;5.40;;;3.73;;
7047;SDS011;3565;53.254;10.352;2023-04-12T12:00:02;5.27;;;3.40;;
7047;SDS011;3565;53.254;10.352;2023-04-12T12:02:33;5.97;;;3.37;;
7047;SDS011;3565;53.254;10.352;2023-04-12T12:07:40;3.30;;;2.93;;
7047;SDS011;3565;53.254;10.352;2023-04-12T12:10:09;4.80;;;3.17;;
7047;SDS011;3565;53.254;10.352;2023-04-12T12:12:39;4.23;;;2.80;;
7047;SDS011;3565;53.254;10.352;2023-04-12T12:15:10;5.33;;;3.17;;
7047;SDS011;3565;53.254;10.352;2023-04-12T12:17:51;4.17;;;2.83;;
7047;SDS011;3565;53.254;10.352;2023-04-12T12:20:22;4.13;;;2.90;;
7047;SDS011;3565;53.254;10.352;2023-04-12T12:23:00;4.27;;;2.90;;
7047;SDS011;3565;53.254;10.352;2023-04-12T12:25:30;4.57;;;2.90;;
7047;SDS011;3565;53.254;10.352;2023-04-12T12:30:45;4.43;;;2.70;;
7047;SDS011;3565;53.254;10.352;2023-04-12T12:35:55;4.17;;;3.10;;
7047;SDS011;3565;53.254;10.352;2023-04-12T12:38:32;4.70;;;3.30;;
7047;SDS011;3565;53.254;10.352;2023-04-12T12:41:15;5.53;;;2.93;;
7047;SDS011;3565;53.254;10.352;2023-04-12T12:46:24;4.10;;;2.53;;
7047;SDS011;3565;53.254;10.352;2023-04-12T12:48:55;4.10;;;3.00;;
7047;SDS011;3565;53.254;10.352;2023-04-12T12:51:34;4.50;;;2.90;;
7047;SDS011;3565;53.254;10.352;2023-04-12T12:54:03;4.40;;;2.70;;
7047;SDS011;3565;53.254;10.352;2023-04-12T12:56:33;3.77;;;2.70;;
7047;SDS011;3565;53.254;10.352;2023-04-12T13:01:39;5.43;;;2.87;;
7047;SDS011;3565;53.254;10.352;2023-04-12T13:04:08;4.90;;;3.00;;
7047;SDS011;3565;53.254;10.352;2023-04-12T13:06:37;5.57;;;2.90;;
7047;SDS011;3565;53.254;10.352;2023-04-12T13:11:44;6.83;;;3.23;;
7047;SDS011;3565;53.254;10.352;2023-04-12T13:16:51;5.17;;;3.13;;
7047;SDS011;3565;53.254;10.352;2023-04-12T13:19:20;4.63;;;3.30;;
7047;SDS011;3565;53.254;10.352;2023-04-12T13:21:59;6.93;;;3.80;;
7047;SDS011;3565;53.254;10.352;2023-04-12T13:24:28;7.40;;;3.67;;
7047;SDS011;3565;53.254;10.352;2023-04-12T13:29:39;6.07;;;4.10;;
7047;SDS011;3565;53.254;10.352;2023-04-12T13:32:09;5.43;;;3.63;;
7047;SDS011;3565;53.254;10.352;2023-04-12T13:34:39;6.33;;;4.10;;
7047;SDS011;3565;53.254;10.352;2023-04-12T13:37:08;6.70;;;3.80;;
7047;SDS011;3565;53.254;10.352;2023-04-12T13:39:37;6.00;;;4.20;;
7047;SDS011;3565;53.254;10.352;2023-04-12T13:42:07;4.27;;;3.80;;
7047;SDS011;3565;53.254;10.352;2023-04-12T13:47:13;3.93;;;3.30;;
7047;SDS011;3565;53.254;10.352;2023-04-12T13:49:43;5.13;;;3.13;;
7047;SDS011;3565;53.254;10.352;2023-04-12T13:52:12;5.57;;;3.40;;
7047;SDS011;3565;53.254;10.352;2023-04-12T13:54:42;5.80;;;3.30;;
7047;SDS011;3565;53.254;10.352;2023-04-12T13:57:12;6.70;;;3.10;;
7047;SDS011;3565;53.254;10.352;2023-04-12T13:59:41;5.90;;;3.37;;
7047;SDS011;3565;53.254;10.352;2023-04-12T14:02:10;5.07;;;4.10;;
7047;SDS011;3565;53.254;10.352;2023-04-12T14:04:54;3.93;;;3.07;;
7047;SDS011;3565;53.254;10.352;2023-04-12T14:10:03;3.40;;;3.10;;
7047;SDS011;3565;53.254;10.352;2023-04-12T14:12:35;7.30;;;3.80;;
7047;SDS011;3565;53.254;10.352;2023-04-12T14:17:43;5.97;;;3.43;;
7047;SDS011;3565;53.254;10.352;2023-04-12T14:20:13;5.43;;;3.30;;
7047;SDS011;3565;53.254;10.352;2023-04-12T14:22:52;4.43;;;3.37;;
7047;SDS011;3565;53.254;10.352;2023-04-12T14:25:30;7.63;;;3.53;;
7047;SDS011;3565;53.254;10.352;2023-04-12T14:28:01;5.37;;;3.57;;
7047;SDS011;3565;53.254;10.352;2023-04-12T14:30:31;6.37;;;3.60;;
7047;SDS011;3565;53.254;10.352;2023-04-12T14:35:37;4.50;;;3.43;;
7047;SDS011;3565;53.254;10.352;2023-04-12T14:40:44;4.97;;;3.50;;
7047;SDS011;3565;53.254;10.352;2023-04-12T14:43:14;5.17;;;3.27;;
7047;SDS011;3565;53.254;10.352;2023-04-12T14:45:53;3.80;;;3.43;;
7047;SDS011;3565;53.254;10.352;2023-04-12T14:50:59;4.93;;;2.90;;
7047;SDS011;3565;53.254;10.352;2023-04-12T14:53:29;4.47;;;3.07;;
7047;SDS011;3565;53.254;10.352;2023-04-12T14:58:35;4.57;;;3.37;;
7047;SDS011;3565;53.254;10.352;2023-04-12T15:01:06;7.20;;;3.53;;
7047;SDS011;3565;53.254;10.352;2023-04-12T15:03:47;4.53;;;3.50;;
7047;SDS011;3565;53.254;10.352;2023-04-12T15:06:17;3.87;;;3.03;;
7047;SDS011;3565;53.254;10.352;2023-04-12T15:08:46;4.30;;;3.03;;
7047;SDS011;3565;53.254;10.352;2023-04-12T15:11:27;3.57;;;3.03;;
7047;SDS011;3565;53.254;10.352;2023-04-12T15:16:35;5.87;;;3.00;;
7047;SDS011;3565;53.254;10.352;2023-04-12T15:19:06;3.37;;;3.00;;
7047;SDS011;3565;53.254;10.352;2023-04-12T15:21:35;4.73;;;3.43;;
7047;SDS011;3565;53.254;10.352;2023-04-12T15:24:05;7.13;;;4.13;;
7047;SDS011;3565;53.254;10.352;2023-04-12T15:26:35;4.03;;;3.30;;
7047;SDS011;3565;53.254;10.352;2023-04-12T15:31:41;4.37;;;3.27;;
7047;SDS011;3565;53.254;10.352;2023-04-12T15:36:48;6.87;;;3.60;;
7047;SDS011;3565;53.254;10.352;2023-04-12T15:39:18;3.70;;;3.20;;
7047;SDS011;3565;53.254;10.352;2023-04-12T15:44:25;3.93;;;3.53;;
7047;SDS011;3565;53.254;10.352;2023-04-12T15:49:34;5.63;;;4.43;;
7047;SDS011;3565;53.254;10.352;2023-04-12T15:52:03;3.97;;;3.50;;
7047;SDS011;3565;53.254;10.352;2023-04-12T15:54:32;7.77;;;3.83;;
7047;SDS011;3565;53.254;10.352;2023-04-12T15:57:03;5.23;;;3.93;;
7047;SDS011;3565;53.254;10.352;2023-04-12T15:59:34;4.80;;;3.80;;
7047;SDS011;3565;53.254;10.352;2023-04-12T16:02:04;5.30;;;4.13;;
7047;SDS011;3565;53.254;10.352;2023-04-12T16:04:43;5.03;;;4.20;;
7047;SDS011;3565;53.254;10.352;2023-04-12T16:07:12;5.60;;;4.47;;
7047;SDS011;3565;53.254;10.352;2023-04-12T16:09:58;6.23;;;4.60;;
7047;SDS011;3565;53.254;10.352;2023-04-12T16:12:28;7.23;;;4.63;;
7047;SDS011;3565;53.254;10.352;2023-04-12T16:14:58;6.47;;;4.47;;
7047;SDS011;3565;53.254;10.352;2023-04-12T16:17:27;6.37;;;4.70;;
7047;SDS011;3565;53.254;10.352;2023-04-12T16:22:33;8.00;;;4.93;;
7047;SDS011;3565;53.254;10.352;2023-04-12T16:27:41;5.90;;;4.50;;
7047;SDS011;3565;53.254;10.352;2023-04-12T16:30:12;5.00;;;4.40;;
7047;SDS011;3565;53.254;10.352;2023-04-12T16:32:50;6.47;;;4.57;;
7047;SDS011;3565;53.254;10.352;2023-04-12T16:35:20;5.77;;;4.57;;
7047;SDS011;3565;53.254;10.352;2023-04-12T16:40:30;5.80;;;4.63;;
7047;SDS011;3565;53.254;10.352;2023-04-12T16:42:59;4.90;;;4.50;;
7047;SDS011;3565;53.254;10.352;2023-04-12T16:45:28;4.80;;;4.30;;
7047;SDS011;3565;53.254;10.352;2023-04-12T16:50:36;4.87;;;4.37;;
7047;SDS011;3565;53.254;10.352;2023-04-12T16:53:06;5.17;;;4.30;;
7047;SDS011;3565;53.254;10.352;2023-04-12T16:55:35;5.40;;;4.90;;
7047;SDS011;3565;53.254;10.352;2023-04-12T16:58:17;5.63;;;4.63;;
7047;SDS011;3565;53.254;10.352;2023-04-12T17:00:47;5.37;;;4.60;;
7047;SDS011;3565;53.254;10.352;2023-04-12T17:03:25;4.90;;;4.40;;
7047;SDS011;3565;53.254;10.352;2023-04-12T17:08:34;5.77;;;5.17;;
7047;SDS011;3565;53.254;10.352;2023-04-12T17:13:41;6.57;;;5.07;;
7047;SDS011;3565;53.254;10.352;2023-04-12T17:16:12;5.60;;;5.10;;
7047;SDS011;3565;53.254;10.352;2023-04-12T17:18:41;5.07;;;4.57;;
7047;SDS011;3565;53.254;10.352;2023-04-12T17:21:20;5.23;;;4.57;;
7047;SDS011;3565;53.254;10.352;2023-04-12T17:23:50;7.47;;;4.93;;
7047;SDS011;3565;53.254;10.352;2023-04-12T17:26:21;5.33;;;4.83;;
7047;SDS011;3565;53.254;10.352;2023-04-12T17:31:30;8.97;;;7.43;;
7047;SDS011;3565;53.254;10.352;2023-04-12T17:34:01;9.17;;;5.60;;
7047;SDS011;3565;53.254;10.352;2023-04-12T17:36:31;11.03;;;8.47;;
7047;SDS011;3565;53.254;10.352;2023-04-12T17:39:02;13.13;;;10.27;;
7047;SDS011;3565;53.254;10.352;2023-04-12T17:41:31;6.90;;;6.20;;
7047;SDS011;3565;53.254;10.352;2023-04-12T17:44:01;12.63;;;9.57;;
7047;SDS011;3565;53.254;10.352;2023-04-12T17:46:31;9.60;;;8.37;;
7047;SDS011;3565;53.254;10.352;2023-04-12T17:49:09;8.00;;;7.20;;
7047;SDS011;3565;53.254;10.352;2023-04-12T17:51:40;7.63;;;6.83;;
7047;SDS011;3565;53.254;10.352;2023-04-12T17:54:09;6.43;;;5.83;;
7047;SDS011;3565;53.254;10.352;2023-04-12T17:56:39;9.13;;;8.33;;
7047;SDS011;3565;53.254;10.352;2023-04-12T17:59:09;8.03;;;7.07;;
7047;SDS011;3565;53.254;10.352;2023-04-12T18:01:39;7.47;;;6.20;;
7047;SDS011;3565;53.254;10.352;2023-04-12T18:04:08;7.83;;;6.10;;
7047;SDS011;3565;53.254;10.352;2023-04-12T18:06:37;8.47;;;7.43;;
7047;SDS011;3565;53.254;10.352;2023-04-12T18:11:46;9.23;;;7.60;;
7047;SDS011;3565;53.254;10.352;2023-04-12T18:14:15;9.37;;;8.37;;
7047;SDS011;3565;53.254;10.352;2023-04-12T18:19:25;8.33;;;7.27;;
7047;SDS011;3565;53.254;10.352;2023-04-12T18:24:33;9.00;;;6.97;;
7047;SDS011;3565;53.254;10.352;2023-04-12T18:27:02;9.30;;;6.47;;
7047;SDS011;3565;53.254;10.352;2023-04-12T18:29:33;8.90;;;7.00;;
7047;SDS011;3565;53.254;10.352;2023-04-12T18:32:15;9.20;;;7.07;;
7047;SDS011;3565;53.254;10.352;2023-04-12T18:34:45;7.73;;;6.93;;
7047;SDS011;3565;53.254;10.352;2023-04-12T18:39:53;7.43;;;6.50;;
7047;SDS011;3565;53.254;10.352;2023-04-12T18:42:23;8.17;;;6.80;;
7047;SDS011;3565;53.254;10.352;2023-04-12T18:47:30;9.30;;;7.10;;
7047;SDS011;3565;53.254;10.352;2023-04-12T18:49:59;7.17;;;6.43;;
7047;SDS011;3565;53.254;10.352;2023-04-12T18:52:29;8.13;;;6.80;;